createdAt,value
2017-08-08T00:00:38.365Z,20.10
2017-08-08T00:03:05.846Z,20.10
2017-08-08T00:05:33.302Z,20.10
2017-08-08T00:08:00.781Z,20.00
2017-08-08T00:10:28.261Z,20.00
2017-08-08T00:12:55.738Z,19.90
2017-08-08T00:15:23.202Z,19.90
2017-08-08T00:17:50.681Z,19.90
2017-08-08T00:20:18.148Z,19.90
2017-08-08T00:22:45.626Z,19.80
2017-08-08T00:25:13.106Z,19.90
2017-08-08T00:27:40.589Z,19.80
2017-08-08T00:30:08.089Z,19.80
2017-08-08T00:32:35.560Z,19.80
2017-08-08T00:35:03.788Z,19.70
2017-08-08T00:37:31.269Z,19.70
2017-08-08T00:39:58.726Z,19.70
2017-08-08T00:42:26.183Z,19.70
2017-08-08T00:44:53.686Z,19.60
2017-08-08T00:47:21.133Z,19.60
2017-08-08T00:49:48.586Z,19.60
2017-08-08T00:52:16.069Z,19.60
2017-08-08T00:54:43.529Z,19.60
2017-08-08T00:57:10.987Z,19.50
2017-08-08T00:59:38.475Z,19.50
2017-08-08T01:02:05.957Z,19.50
2017-08-08T01:04:33.414Z,19.50
2017-08-08T01:07:00.893Z,19.50
2017-08-08T01:09:29.119Z,19.50
2017-08-08T01:11:56.569Z,19.50
2017-08-08T01:14:24.046Z,19.50
2017-08-08T01:16:51.502Z,19.50
2017-08-08T01:19:19.017Z,19.50
2017-08-08T01:21:46.477Z,19.40
2017-08-08T01:24:13.924Z,19.40
2017-08-08T01:26:42.179Z,19.40
2017-08-08T01:29:09.631Z,19.40
2017-08-08T01:31:37.073Z,19.40
2017-08-08T01:34:04.575Z,19.30
2017-08-08T01:36:32.792Z,19.30
2017-08-08T01:39:00.249Z,19.30
2017-08-08T01:41:27.744Z,19.30
2017-08-08T01:43:55.206Z,19.30
2017-08-08T01:46:22.663Z,19.30
2017-08-08T01:48:50.141Z,19.30
2017-08-08T01:51:18.389Z,19.20
2017-08-08T01:53:45.839Z,19.20
2017-08-08T01:56:13.321Z,19.20
2017-08-08T01:58:40.778Z,19.20
2017-08-08T02:01:08.242Z,19.20
2017-08-08T02:03:36.481Z,19.20
2017-08-08T02:06:03.939Z,19.20
2017-08-08T02:08:31.422Z,19.20
2017-08-08T02:10:58.877Z,19.10
2017-08-08T02:13:26.334Z,19.10
2017-08-08T02:15:53.813Z,19.10
2017-08-08T02:18:22.073Z,19.20
2017-08-08T02:20:49.526Z,19.10
2017-08-08T02:23:16.983Z,19.20
2017-08-08T02:25:44.469Z,19.20
2017-08-08T02:28:11.982Z,19.10
2017-08-08T02:30:39.455Z,19.10
2017-08-08T02:33:06.913Z,19.10
2017-08-08T02:35:34.402Z,19.10
2017-08-08T02:38:02.626Z,19.00
2017-08-08T02:40:30.082Z,19.00
2017-08-08T02:42:57.572Z,19.00
2017-08-08T02:45:25.036Z,19.00
2017-08-08T02:47:52.522Z,19.00
2017-08-08T02:50:19.985Z,19.00
2017-08-08T02:52:47.444Z,19.00
2017-08-08T02:55:14.942Z,18.90
2017-08-08T02:57:42.397Z,18.90
2017-08-08T03:00:09.858Z,18.90
2017-08-08T03:02:37.338Z,18.80
2017-08-08T03:05:04.831Z,18.80
2017-08-08T03:07:32.322Z,18.80
2017-08-08T03:09:59.777Z,18.70
2017-08-08T03:12:27.234Z,18.70
2017-08-08T03:14:54.715Z,18.70
2017-08-08T03:17:22.182Z,18.60
2017-08-08T03:19:49.665Z,18.60
2017-08-08T03:22:17.919Z,18.50
2017-08-08T03:24:45.377Z,18.50
2017-08-08T03:27:12.872Z,18.50
2017-08-08T03:29:40.336Z,18.50
2017-08-08T03:32:07.786Z,18.50
2017-08-08T03:34:35.274Z,18.50
2017-08-08T03:37:02.739Z,18.40
2017-08-08T03:39:30.222Z,18.40
2017-08-08T03:41:57.725Z,18.40
2017-08-08T03:44:25.177Z,18.40
2017-08-08T03:46:52.633Z,18.30
2017-08-08T03:49:20.129Z,18.30
2017-08-08T03:51:47.586Z,18.20
2017-08-08T03:54:15.049Z,18.20
2017-08-08T03:56:42.550Z,18.20
2017-08-08T03:59:10.015Z,18.20
2017-08-08T04:01:37.534Z,18.20
2017-08-08T04:04:04.984Z,18.20
2017-08-08T04:06:32.452Z,18.10
2017-08-08T04:08:59.978Z,18.10
2017-08-08T04:11:27.444Z,18.10
2017-08-08T04:13:54.898Z,18.10
2017-08-08T04:16:22.391Z,18.10
2017-08-08T04:18:49.880Z,18.10
2017-08-08T04:21:17.344Z,18.10
2017-08-08T04:23:44.822Z,18.10
2017-08-08T04:26:12.313Z,18.10
2017-08-08T04:28:39.774Z,18.10
2017-08-08T04:31:07.245Z,18.10
2017-08-08T04:33:34.730Z,18.10
2017-08-08T04:36:02.186Z,18.10
2017-08-08T04:38:29.673Z,18.10
2017-08-08T04:40:57.133Z,18.10
2017-08-08T04:43:24.592Z,18.00
2017-08-08T04:45:52.074Z,18.10
2017-08-08T04:48:19.541Z,18.10
2017-08-08T04:50:47.050Z,18.10
2017-08-08T04:53:14.521Z,18.10
2017-08-08T04:55:41.982Z,18.20
2017-08-08T04:58:09.482Z,18.10
2017-08-08T05:00:36.952Z,18.10
2017-08-08T05:03:04.689Z,18.10
2017-08-08T05:05:32.182Z,18.20
2017-08-08T05:07:59.654Z,18.20
2017-08-08T05:10:27.873Z,18.20
2017-08-08T05:12:55.359Z,18.20
2017-08-08T05:15:22.822Z,18.30
2017-08-08T05:17:50.326Z,18.30
2017-08-08T05:20:17.793Z,18.40
2017-08-08T05:22:45.250Z,18.40
2017-08-08T05:25:12.747Z,18.60
2017-08-08T05:27:40.205Z,18.70
2017-08-08T05:30:07.663Z,18.80
2017-08-08T05:32:35.167Z,18.90
2017-08-08T05:35:02.623Z,18.90
2017-08-08T05:37:30.072Z,19.00
2017-08-08T05:39:57.554Z,19.00
2017-08-08T05:42:25.010Z,19.00
2017-08-08T05:44:52.481Z,19.00
2017-08-08T05:47:19.950Z,19.00
2017-08-08T05:49:47.430Z,19.10
2017-08-08T05:52:14.954Z,19.20
2017-08-08T05:54:42.405Z,19.30
2017-08-08T05:57:09.863Z,19.40
2017-08-08T05:59:37.338Z,19.60
2017-08-08T06:02:04.830Z,19.80
2017-08-08T06:04:32.285Z,19.90
2017-08-08T06:06:59.773Z,20.10
2017-08-08T06:09:28.031Z,20.30
2017-08-08T06:11:56.497Z,20.40
2017-08-08T06:14:23.966Z,20.40
2017-08-08T06:16:51.474Z,20.40
2017-08-08T06:19:18.935Z,20.50
2017-08-08T06:21:46.387Z,20.50
2017-08-08T06:24:13.869Z,20.50
2017-08-08T06:26:41.323Z,20.50
2017-08-08T06:29:08.773Z,20.50
2017-08-08T06:31:36.250Z,20.50
2017-08-08T06:34:03.770Z,20.60
2017-08-08T06:36:31.258Z,20.60
2017-08-08T06:38:58.746Z,20.70
2017-08-08T06:41:26.198Z,20.70
2017-08-08T06:43:53.653Z,20.80
2017-08-08T06:46:21.132Z,20.80
2017-08-08T06:48:48.598Z,20.80
2017-08-08T06:51:16.078Z,20.70
2017-08-08T06:53:43.534Z,20.70
2017-08-08T06:56:10.998Z,20.70
2017-08-08T06:58:38.470Z,20.70
2017-08-08T07:01:05.953Z,20.80
2017-08-08T07:03:33.409Z,20.80
2017-08-08T07:06:00.866Z,20.80
2017-08-08T07:08:28.361Z,20.90
2017-08-08T07:10:56.601Z,21.00
2017-08-08T07:13:24.057Z,21.00
2017-08-08T07:15:51.539Z,21.10
2017-08-08T07:18:19.014Z,21.20
2017-08-08T07:20:47.270Z,21.30
2017-08-08T07:23:14.753Z,21.30
2017-08-08T07:25:42.237Z,21.40
2017-08-08T07:28:09.702Z,21.50
2017-08-08T07:30:37.182Z,21.50
2017-08-08T07:33:04.678Z,21.60
2017-08-08T07:35:32.902Z,21.90
2017-08-08T07:38:00.358Z,21.90
2017-08-08T07:40:27.830Z,22.10
2017-08-08T07:42:55.313Z,22.20
2017-08-08T07:45:22.774Z,22.40
2017-08-08T07:47:50.262Z,22.50
2017-08-08T07:50:17.721Z,22.60
2017-08-08T07:52:45.177Z,22.70
2017-08-08T07:55:12.652Z,22.70
2017-08-08T07:57:40.105Z,22.80
2017-08-08T08:00:07.588Z,22.70
2017-08-08T08:02:35.039Z,22.70
2017-08-08T08:05:02.508Z,22.70
2017-08-08T08:07:29.981Z,22.80
2017-08-08T08:09:57.455Z,22.90
2017-08-08T08:12:24.942Z,23.00
2017-08-08T08:14:52.389Z,23.10
2017-08-08T08:17:20.614Z,23.40
2017-08-08T08:19:48.088Z,23.40
2017-08-08T08:22:15.538Z,23.50
2017-08-08T08:24:43.027Z,23.50
2017-08-08T08:27:10.482Z,23.50
2017-08-08T08:29:37.943Z,23.60
2017-08-08T08:32:05.507Z,23.80
2017-08-08T08:34:32.953Z,23.90
2017-08-08T08:37:00.413Z,24.10
2017-08-08T08:39:27.885Z,24.10
2017-08-08T08:41:56.101Z,24.40
2017-08-08T08:44:23.549Z,24.30
2017-08-08T08:46:51.054Z,24.50
2017-08-08T08:49:18.510Z,24.50
2017-08-08T08:51:45.970Z,24.60
2017-08-08T08:54:13.446Z,24.70
2017-08-08T08:56:41.670Z,24.70
2017-08-08T08:59:09.173Z,24.70
2017-08-08T09:01:36.625Z,24.80
2017-08-08T09:04:04.081Z,24.90
2017-08-08T09:06:31.557Z,25.00
2017-08-08T09:08:59.772Z,25.10
2017-08-08T09:11:27.263Z,25.10
2017-08-08T09:13:54.709Z,25.10
2017-08-08T09:16:22.164Z,25.10
2017-08-08T09:18:49.642Z,25.10
2017-08-08T09:21:17.108Z,25.00
2017-08-08T09:23:44.586Z,24.90
2017-08-08T09:26:12.808Z,24.70
2017-08-08T09:28:40.266Z,24.70
2017-08-08T09:31:07.754Z,24.70
2017-08-08T09:33:35.218Z,24.70
2017-08-08T09:36:02.677Z,24.60
2017-08-08T09:38:30.150Z,24.70
2017-08-08T09:40:57.598Z,24.80
2017-08-08T09:43:25.109Z,24.90
2017-08-08T09:45:52.570Z,25.10
2017-08-08T09:48:20.036Z,25.30
2017-08-08T09:50:47.526Z,25.30
2017-08-08T09:53:15.013Z,25.40
2017-08-08T09:55:42.515Z,25.50
2017-08-08T09:58:09.977Z,25.40
2017-08-08T10:00:37.438Z,25.30
2017-08-08T10:03:04.939Z,25.30
2017-08-08T10:05:32.407Z,25.40
2017-08-08T10:07:59.862Z,25.40
2017-08-08T10:10:27.347Z,25.40
2017-08-08T10:12:54.877Z,25.40
2017-08-08T10:15:22.346Z,25.30
2017-08-08T10:17:49.801Z,25.30
2017-08-08T10:20:17.301Z,25.30
2017-08-08T10:22:44.762Z,25.30
2017-08-08T10:25:12.225Z,25.20
2017-08-08T10:27:39.722Z,25.20
2017-08-08T10:30:07.182Z,25.10
2017-08-08T10:32:35.402Z,24.90
2017-08-08T10:35:02.921Z,24.90
2017-08-08T10:37:30.382Z,24.90
2017-08-08T10:39:57.849Z,24.90
2017-08-08T10:42:25.374Z,24.90
2017-08-08T10:44:53.606Z,24.80
2017-08-08T10:47:21.064Z,24.80
2017-08-08T10:49:48.550Z,24.80
2017-08-08T10:52:16.001Z,24.80
2017-08-08T10:54:43.483Z,24.80
2017-08-08T10:57:10.938Z,24.80
2017-08-08T10:59:38.421Z,24.80
2017-08-08T11:02:05.889Z,24.90
2017-08-08T11:04:33.350Z,25.00
2017-08-08T11:07:00.833Z,25.10
2017-08-08T11:09:28.299Z,25.10
2017-08-08T11:11:55.778Z,25.10
2017-08-08T11:14:23.267Z,25.20
2017-08-08T11:16:50.733Z,25.10
2017-08-08T11:19:18.253Z,25.10
2017-08-08T11:21:45.723Z,25.10
2017-08-08T11:24:13.178Z,25.10
2017-08-08T11:26:41.051Z,25.10
2017-08-08T11:29:08.521Z,25.10
2017-08-08T11:31:35.995Z,25.20
2017-08-08T11:34:03.489Z,25.20
2017-08-08T11:36:30.956Z,25.20
2017-08-08T11:38:58.414Z,25.20
2017-08-08T11:41:25.893Z,25.20
2017-08-08T11:43:53.396Z,25.20
2017-08-08T11:46:20.873Z,25.20
2017-08-08T11:48:48.330Z,25.20
2017-08-08T11:51:15.826Z,25.20
2017-08-08T11:53:43.283Z,25.10
2017-08-08T11:56:10.742Z,25.10
2017-08-08T11:58:38.235Z,25.10
2017-08-08T12:01:05.718Z,25.10
2017-08-08T12:03:33.198Z,25.10
2017-08-08T12:06:00.654Z,25.10
2017-08-08T12:08:28.145Z,25.10
2017-08-08T12:10:55.613Z,25.00
2017-08-08T12:13:23.070Z,24.80
2017-08-08T12:15:51.341Z,24.70
2017-08-08T12:18:19.566Z,24.50
2017-08-08T12:20:47.034Z,24.50
2017-08-08T12:23:14.519Z,24.40
2017-08-08T12:25:41.998Z,24.30
2017-08-08T12:28:09.497Z,24.10
2017-08-08T12:30:36.962Z,24.00
2017-08-08T12:33:04.437Z,23.90
2017-08-08T12:35:31.910Z,23.70
2017-08-08T12:37:59.414Z,23.70
2017-08-08T12:40:26.869Z,23.60
2017-08-08T12:42:54.333Z,23.50
2017-08-08T12:45:21.815Z,23.50
2017-08-08T12:47:49.306Z,23.50
2017-08-08T12:50:16.797Z,23.40
2017-08-08T12:52:44.250Z,23.50
2017-08-08T12:55:11.698Z,23.50
2017-08-08T12:57:39.965Z,23.70
2017-08-08T13:00:07.430Z,23.60
2017-08-08T13:02:35.645Z,23.60
2017-08-08T13:05:03.121Z,23.60
2017-08-08T13:07:30.611Z,23.50
2017-08-08T13:09:58.087Z,23.40
2017-08-08T13:12:26.309Z,23.10
2017-08-08T13:14:53.782Z,23.10
2017-08-08T13:17:21.238Z,23.00
2017-08-08T13:19:48.714Z,22.90
2017-08-08T13:22:16.169Z,22.80
2017-08-08T13:24:43.649Z,22.90
2017-08-08T13:27:11.874Z,22.90
2017-08-08T13:29:39.369Z,22.90
2017-08-08T13:32:06.832Z,22.80
2017-08-08T13:34:35.058Z,22.80
2017-08-08T13:37:02.544Z,22.70
2017-08-08T13:39:30.022Z,22.80
2017-08-08T13:41:58.266Z,22.70
2017-08-08T13:44:25.718Z,22.70
2017-08-08T13:46:53.193Z,22.60
2017-08-08T13:49:20.641Z,22.60
2017-08-08T13:51:48.123Z,22.60
2017-08-08T13:54:15.582Z,22.70
2017-08-08T13:56:43.067Z,22.70
2017-08-08T13:59:10.527Z,22.70
2017-08-08T14:01:38.010Z,22.80
2017-08-08T14:04:05.471Z,22.80
2017-08-08T14:06:32.946Z,22.70
2017-08-08T14:09:00.416Z,22.70
2017-08-08T14:11:27.889Z,22.70
2017-08-08T14:13:55.350Z,22.70
2017-08-08T14:16:22.847Z,22.70
2017-08-08T14:18:50.305Z,22.70
2017-08-08T14:21:17.770Z,22.70
2017-08-08T14:23:45.261Z,22.70
2017-08-08T14:26:12.736Z,22.70
2017-08-08T14:28:40.193Z,22.60
2017-08-08T14:31:07.687Z,22.40
2017-08-08T14:33:35.145Z,22.20
2017-08-08T14:36:02.605Z,22.10
2017-08-08T14:38:30.126Z,21.90
2017-08-08T14:40:57.587Z,21.90
2017-08-08T14:43:25.055Z,21.80
2017-08-08T14:45:53.318Z,21.60
2017-08-08T14:48:20.774Z,21.60
2017-08-08T14:50:48.233Z,21.60
2017-08-08T14:53:15.725Z,21.60
2017-08-08T14:55:43.195Z,21.60
2017-08-08T14:58:10.676Z,21.70
2017-08-08T15:00:38.157Z,21.70
2017-08-08T15:03:05.682Z,21.80
2017-08-08T15:05:33.150Z,21.90
2017-08-08T15:08:00.609Z,21.90
2017-08-08T15:10:28.110Z,22.00
2017-08-08T15:12:55.563Z,22.00
2017-08-08T15:15:23.017Z,22.00
2017-08-08T15:17:50.506Z,22.00
2017-08-08T15:20:17.994Z,22.00
2017-08-08T15:22:45.465Z,22.00
2017-08-08T15:25:12.957Z,21.90
2017-08-08T15:27:40.419Z,21.80
2017-08-08T15:30:07.894Z,21.70
2017-08-08T15:32:35.358Z,21.70
2017-08-08T15:35:02.843Z,21.70
2017-08-08T15:37:30.322Z,21.70
2017-08-08T15:39:57.815Z,21.70
2017-08-08T15:42:25.309Z,21.60
2017-08-08T15:44:52.778Z,21.70
2017-08-08T15:47:20.245Z,21.90
2017-08-08T15:49:47.734Z,23.10
2017-08-08T15:52:15.217Z,24.00
2017-08-08T15:54:43.467Z,26.90
2017-08-08T15:57:10.979Z,26.90
2017-08-08T15:59:39.211Z,26.80
2017-08-08T16:02:06.672Z,26.90
2017-08-08T16:04:34.159Z,26.80
2017-08-08T16:07:01.647Z,26.20
2017-08-08T16:09:29.106Z,25.50
2017-08-08T16:11:56.594Z,24.90
2017-08-08T16:14:24.049Z,24.30
2017-08-08T16:16:51.505Z,23.90
2017-08-08T16:19:19.007Z,23.60
2017-08-08T16:21:46.461Z,23.40
2017-08-08T16:24:13.918Z,23.10
2017-08-08T16:26:41.391Z,22.90
2017-08-08T16:29:08.870Z,22.80
2017-08-08T16:31:36.349Z,22.70
2017-08-08T16:34:03.809Z,22.40
2017-08-08T16:36:31.265Z,22.30
2017-08-08T16:38:58.742Z,22.20
2017-08-08T16:41:26.238Z,22.10
2017-08-08T16:43:53.729Z,22.00
2017-08-08T16:46:21.184Z,22.00
2017-08-08T16:48:48.644Z,21.90
2017-08-08T16:51:16.122Z,21.80
2017-08-08T16:53:43.617Z,21.70
2017-08-08T16:56:11.077Z,21.70
2017-08-08T16:58:38.539Z,21.60
2017-08-08T17:01:06.013Z,21.50
2017-08-08T17:03:33.490Z,21.50
2017-08-08T17:06:00.971Z,21.40
2017-08-08T17:08:28.430Z,21.30
2017-08-08T17:10:55.917Z,21.30
2017-08-08T17:13:24.166Z,21.20
2017-08-08T17:15:51.627Z,21.20
2017-08-08T17:18:19.115Z,21.20
2017-08-08T17:20:46.569Z,21.20
2017-08-08T17:23:14.022Z,21.20
2017-08-08T17:25:41.501Z,21.20
2017-08-08T17:28:08.961Z,21.10
2017-08-08T17:30:36.454Z,21.00
2017-08-08T17:33:03.918Z,21.00
2017-08-08T17:35:31.374Z,20.90
2017-08-08T17:37:58.859Z,20.90
2017-08-08T17:40:26.346Z,20.80
2017-08-08T17:42:53.802Z,20.60
2017-08-08T17:45:21.258Z,20.50
2017-08-08T17:47:48.741Z,20.40
2017-08-08T17:50:16.198Z,20.30
2017-08-08T17:52:43.694Z,20.20
2017-08-08T17:55:11.153Z,20.10
2017-08-08T17:57:38.619Z,20.00
2017-08-08T18:00:06.101Z,19.90
2017-08-08T18:02:33.558Z,19.80
2017-08-08T18:05:01.078Z,19.70
2017-08-08T18:07:28.543Z,19.60
2017-08-08T18:09:56.006Z,19.40
2017-08-08T18:12:23.505Z,19.30
2017-08-08T18:14:50.965Z,19.20
2017-08-08T18:17:18.430Z,19.10
2017-08-08T18:19:46.737Z,19.00
2017-08-08T18:22:14.220Z,18.90
2017-08-08T18:24:41.672Z,18.70
2017-08-08T18:27:09.130Z,18.40
2017-08-08T18:29:36.597Z,18.30
2017-08-08T18:32:04.057Z,18.20
2017-08-08T18:34:31.550Z,18.10
2017-08-08T18:36:59.006Z,18.00
2017-08-08T18:39:26.467Z,18.00
2017-08-08T18:41:53.937Z,17.90
2017-08-08T18:44:21.386Z,17.80
2017-08-08T18:46:48.883Z,17.80
2017-08-08T18:49:16.338Z,17.80
2017-08-08T18:51:43.781Z,17.70
2017-08-08T18:54:11.259Z,17.70
2017-08-08T18:56:38.715Z,17.70
2017-08-08T18:59:06.181Z,17.60
2017-08-08T19:01:33.667Z,17.60
2017-08-08T19:04:01.886Z,17.60
2017-08-08T19:06:29.337Z,17.50
2017-08-08T19:08:56.802Z,17.60
2017-08-08T19:11:24.267Z,17.60
2017-08-08T19:13:51.738Z,17.50
2017-08-08T19:16:19.198Z,17.50
2017-08-08T19:18:46.674Z,17.50
2017-08-08T19:21:14.121Z,17.40
2017-08-08T19:23:41.582Z,17.40
2017-08-08T19:26:09.054Z,17.40
2017-08-08T19:28:36.513Z,17.30
2017-08-08T19:31:04.006Z,17.30
2017-08-08T19:33:31.465Z,17.30
2017-08-08T19:35:58.931Z,17.20
2017-08-08T19:38:26.417Z,17.20
2017-08-08T19:40:53.881Z,17.20
2017-08-08T19:43:21.338Z,17.10
2017-08-08T19:45:48.823Z,17.10
2017-08-08T19:48:17.046Z,17.00
2017-08-08T19:50:44.521Z,17.00
2017-08-08T19:53:11.995Z,17.00
2017-08-08T19:55:39.467Z,17.00
2017-08-08T19:58:06.929Z,16.90
2017-08-08T20:00:35.177Z,17.00
2017-08-08T20:03:02.629Z,17.00
2017-08-08T20:05:30.082Z,17.00
2017-08-08T20:07:57.565Z,17.00
2017-08-08T20:10:25.017Z,17.00
2017-08-08T20:12:52.464Z,17.00
2017-08-08T20:15:19.959Z,16.90
2017-08-08T20:17:47.499Z,16.90
2017-08-08T20:20:14.958Z,16.90
2017-08-08T20:22:42.434Z,16.80
2017-08-08T20:25:09.924Z,16.80
2017-08-08T20:27:37.379Z,16.80
2017-08-08T20:30:04.901Z,16.70
2017-08-08T20:32:32.354Z,16.70
2017-08-08T20:34:59.809Z,16.70
2017-08-08T20:37:27.289Z,16.60
2017-08-08T20:39:55.556Z,16.60
2017-08-08T20:42:23.780Z,16.60
2017-08-08T20:44:51.242Z,16.60
2017-08-08T20:47:18.733Z,16.60
2017-08-08T20:49:46.195Z,16.60
2017-08-08T20:52:13.659Z,16.60
2017-08-08T20:54:41.141Z,16.60
2017-08-08T20:57:08.607Z,16.50
2017-08-08T20:59:36.077Z,16.50
2017-08-08T21:02:03.562Z,16.50
2017-08-08T21:04:31.025Z,16.50
2017-08-08T21:06:58.506Z,16.40
2017-08-08T21:09:25.979Z,16.40
2017-08-08T21:11:54.226Z,16.40
2017-08-08T21:14:21.708Z,16.40
2017-08-08T21:16:49.173Z,16.40
2017-08-08T21:19:17.435Z,16.40
2017-08-08T21:21:44.903Z,16.40
2017-08-08T21:24:13.126Z,16.40
2017-08-08T21:26:40.617Z,16.30
2017-08-08T21:29:08.074Z,16.40
2017-08-08T21:31:35.530Z,16.30
2017-08-08T21:34:03.020Z,16.30
2017-08-08T21:36:31.269Z,16.30
2017-08-08T21:38:58.721Z,16.30
2017-08-08T21:41:26.205Z,16.30
2017-08-08T21:43:54.422Z,16.20
2017-08-08T21:46:21.905Z,16.20
2017-08-08T21:48:49.385Z,16.20
2017-08-08T21:51:16.861Z,16.20
2017-08-08T21:53:45.082Z,16.30
2017-08-08T21:56:12.575Z,16.30
2017-08-08T21:58:40.025Z,16.30
2017-08-08T22:01:07.489Z,16.40
2017-08-08T22:03:34.966Z,16.40
2017-08-08T22:06:02.434Z,16.50
2017-08-08T22:08:29.895Z,16.50
2017-08-08T22:10:57.382Z,16.50
2017-08-08T22:13:24.854Z,16.50
2017-08-08T22:15:52.357Z,16.50
2017-08-08T22:18:19.819Z,16.50
2017-08-08T22:20:48.073Z,16.50
2017-08-08T22:23:15.521Z,16.50
2017-08-08T22:25:42.974Z,16.50
2017-08-08T22:28:10.465Z,16.50
2017-08-08T22:30:38.686Z,16.40
2017-08-08T22:33:06.158Z,16.40
2017-08-08T22:35:33.666Z,16.40
2017-08-08T22:38:01.126Z,16.40
2017-08-08T22:40:28.579Z,16.40
2017-08-08T22:42:56.061Z,16.40
2017-08-08T22:45:23.513Z,16.40
2017-08-08T22:47:50.970Z,16.40
2017-08-08T22:50:18.453Z,16.40
2017-08-08T22:52:45.914Z,16.50
2017-08-08T22:55:13.405Z,16.40
2017-08-08T22:57:40.858Z,16.40
2017-08-08T23:00:08.326Z,16.40
2017-08-08T23:02:35.814Z,16.40
2017-08-08T23:05:03.282Z,16.40
2017-08-08T23:07:30.738Z,16.40
2017-08-08T23:09:58.233Z,16.30
2017-08-08T23:12:25.690Z,16.30
2017-08-08T23:14:53.146Z,16.30
2017-08-08T23:17:20.637Z,16.30
2017-08-08T23:19:48.090Z,16.30
2017-08-08T23:22:15.541Z,16.40
2017-08-08T23:24:43.025Z,16.40
2017-08-08T23:27:10.486Z,16.40
2017-08-08T23:29:37.945Z,16.40
2017-08-08T23:32:05.437Z,16.40
2017-08-08T23:34:32.889Z,16.30
2017-08-08T23:37:00.365Z,16.30
2017-08-08T23:39:27.828Z,16.20
2017-08-08T23:41:55.286Z,16.20
2017-08-08T23:44:22.764Z,16.20
2017-08-08T23:46:50.214Z,16.20
2017-08-08T23:49:17.695Z,16.20
2017-08-08T23:51:45.146Z,16.20
2017-08-08T23:54:12.734Z,16.20
2017-08-08T23:56:40.189Z,16.30
2017-08-08T23:59:07.651Z,16.30
